sensor_id;sensor_type;location;lat;lon;timestamp;P1;durP1;ratioP1;P2;durP2;ratioP2
61358;SDS011;47228;46.762;23.598;2023-11-19T00:01:16;12.90;;;8.40;;
61358;SDS011;47228;46.762;23.598;2023-11-19T00:03:44;11.70;;;8.80;;
61358;SDS011;47228;46.762;23.598;2023-11-19T00:06:14;16.50;;;8.20;;
61358;SDS011;47228;46.762;23.598;2023-11-19T00:08:42;12.70;;;8.20;;
61358;SDS011;47228;46.762;23.598;2023-11-19T00:11:11;12.60;;;8.20;;
61358;SDS011;47228;46.762;23.598;2023-11-19T00:13:43;14.00;;;9.00;;
61358;SDS011;47228;46.762;23.598;2023-11-19T00:16:11;13.00;;;8.50;;
61358;SDS011;47228;46.762;23.598;2023-11-19T00:18:40;12.90;;;8.60;;
61358;SDS011;47228;46.762;23.598;2023-11-19T00:21:08;13.80;;;8.40;;
61358;SDS011;47228;46.762;23.598;2023-11-19T00:23:37;16.30;;;9.50;;
61358;SDS011;47228;46.762;23.598;2023-11-19T00:26:05;14.80;;;9.20;;
61358;SDS011;47228;46.762;23.598;2023-11-19T00:28:34;21.00;;;9.70;;
61358;SDS011;47228;46.762;23.598;2023-11-19T00:31:02;13.90;;;8.70;;
61358;SDS011;47228;46.762;23.598;2023-11-19T00:33:31;14.10;;;8.30;;
61358;SDS011;47228;46.762;23.598;2023-11-19T00:35:59;13.30;;;8.60;;
61358;SDS011;47228;46.762;23.598;2023-11-19T00:38:27;13.30;;;9.00;;
61358;SDS011;47228;46.762;23.598;2023-11-19T00:40:55;16.00;;;10.10;;
61358;SDS011;47228;46.762;23.598;2023-11-19T00:43:23;12.90;;;8.50;;
61358;SDS011;47228;46.762;23.598;2023-11-19T00:45:51;14.60;;;9.40;;
61358;SDS011;47228;46.762;23.598;2023-11-19T00:48:19;15.00;;;9.10;;
61358;SDS011;47228;46.762;23.598;2023-11-19T00:50:47;17.80;;;10.30;;
61358;SDS011;47228;46.762;23.598;2023-11-19T00:53:15;15.10;;;9.40;;
61358;SDS011;47228;46.762;23.598;2023-11-19T00:55:43;14.50;;;9.20;;
61358;SDS011;47228;46.762;23.598;2023-11-19T00:58:14;15.70;;;9.20;;
61358;SDS011;47228;46.762;23.598;2023-11-19T01:00:42;16.40;;;9.40;;
61358;SDS011;47228;46.762;23.598;2023-11-19T01:03:10;16.10;;;7.10;;
61358;SDS011;47228;46.762;23.598;2023-11-19T01:05:39;15.30;;;8.70;;
61358;SDS011;47228;46.762;23.598;2023-11-19T01:08:07;16.40;;;9.90;;
61358;SDS011;47228;46.762;23.598;2023-11-19T01:10:37;15.00;;;9.60;;
61358;SDS011;47228;46.762;23.598;2023-11-19T01:13:05;15.70;;;9.60;;
61358;SDS011;47228;46.762;23.598;2023-11-19T01:15:33;16.40;;;10.10;;
61358;SDS011;47228;46.762;23.598;2023-11-19T01:18:01;16.40;;;9.90;;
61358;SDS011;47228;46.762;23.598;2023-11-19T01:20:33;17.20;;;10.70;;
61358;SDS011;47228;46.762;23.598;2023-11-19T01:23:02;18.80;;;11.00;;
61358;SDS011;47228;46.762;23.598;2023-11-19T01:25:30;16.80;;;10.20;;
61358;SDS011;47228;46.762;23.598;2023-11-19T01:27:58;17.60;;;9.90;;
61358;SDS011;47228;46.762;23.598;2023-11-19T01:30:27;15.10;;;9.50;;
61358;SDS011;47228;46.762;23.598;2023-11-19T01:32:55;16.20;;;10.00;;
61358;SDS011;47228;46.762;23.598;2023-11-19T01:35:23;16.60;;;9.60;;
61358;SDS011;47228;46.762;23.598;2023-11-19T01:37:54;17.10;;;9.60;;
61358;SDS011;47228;46.762;23.598;2023-11-19T01:40:22;15.20;;;9.60;;
61358;SDS011;47228;46.762;23.598;2023-11-19T01:42:51;16.20;;;8.90;;
61358;SDS011;47228;46.762;23.598;2023-11-19T01:45:26;16.10;;;9.90;;
61358;SDS011;47228;46.762;23.598;2023-11-19T01:47:57;15.80;;;9.90;;
61358;SDS011;47228;46.762;23.598;2023-11-19T01:50:28;14.60;;;8.80;;
61358;SDS011;47228;46.762;23.598;2023-11-19T01:52:56;15.60;;;9.20;;
61358;SDS011;47228;46.762;23.598;2023-11-19T01:55:27;17.50;;;9.80;;
61358;SDS011;47228;46.762;23.598;2023-11-19T01:57:58;18.50;;;11.30;;
61358;SDS011;47228;46.762;23.598;2023-11-19T02:00:28;17.80;;;10.40;;
61358;SDS011;47228;46.762;23.598;2023-11-19T02:02:57;17.30;;;10.60;;
61358;SDS011;47228;46.762;23.598;2023-11-19T02:05:25;17.10;;;10.20;;
61358;SDS011;47228;46.762;23.598;2023-11-19T02:07:54;17.30;;;10.90;;
61358;SDS011;47228;46.762;23.598;2023-11-19T02:10:22;17.20;;;11.00;;
61358;SDS011;47228;46.762;23.598;2023-11-19T02:12:52;21.60;;;11.30;;
61358;SDS011;47228;46.762;23.598;2023-11-19T02:15:20;18.50;;;11.00;;
61358;SDS011;47228;46.762;23.598;2023-11-19T02:17:52;17.40;;;10.80;;
61358;SDS011;47228;46.762;23.598;2023-11-19T02:20:20;19.50;;;11.80;;
61358;SDS011;47228;46.762;23.598;2023-11-19T02:22:48;20.20;;;12.10;;
61358;SDS011;47228;46.762;23.598;2023-11-19T02:25:23;21.80;;;12.80;;
61358;SDS011;47228;46.762;23.598;2023-11-19T02:27:57;20.90;;;12.10;;
61358;SDS011;47228;46.762;23.598;2023-11-19T02:30:28;20.60;;;11.70;;
61358;SDS011;47228;46.762;23.598;2023-11-19T02:32:57;20.10;;;12.40;;
61358;SDS011;47228;46.762;23.598;2023-11-19T02:35:33;21.30;;;12.90;;
61358;SDS011;47228;46.762;23.598;2023-11-19T02:38:01;17.70;;;11.50;;
61358;SDS011;47228;46.762;23.598;2023-11-19T02:40:31;21.20;;;13.40;;
61358;SDS011;47228;46.762;23.598;2023-11-19T02:42:59;20.80;;;12.80;;
61358;SDS011;47228;46.762;23.598;2023-11-19T02:45:27;19.60;;;12.70;;
61358;SDS011;47228;46.762;23.598;2023-11-19T02:47:58;21.10;;;12.60;;
61358;SDS011;47228;46.762;23.598;2023-11-19T02:50:29;19.10;;;11.50;;
61358;SDS011;47228;46.762;23.598;2023-11-19T02:52:59;21.10;;;12.00;;
61358;SDS011;47228;46.762;23.598;2023-11-19T02:55:27;19.80;;;12.70;;
61358;SDS011;47228;46.762;23.598;2023-11-19T02:57:58;19.90;;;11.80;;
61358;SDS011;47228;46.762;23.598;2023-11-19T03:00:27;20.20;;;13.00;;
61358;SDS011;47228;46.762;23.598;2023-11-19T03:03:03;20.90;;;12.00;;
61358;SDS011;47228;46.762;23.598;2023-11-19T03:05:52;22.60;;;11.30;;
61358;SDS011;47228;46.762;23.598;2023-11-19T03:08:20;18.90;;;11.70;;
61358;SDS011;47228;46.762;23.598;2023-11-19T03:10:50;17.90;;;11.30;;
61358;SDS011;47228;46.762;23.598;2023-11-19T03:13:18;18.80;;;12.00;;
61358;SDS011;47228;46.762;23.598;2023-11-19T03:15:47;18.10;;;11.30;;
61358;SDS011;47228;46.762;23.598;2023-11-19T03:18:15;19.10;;;11.40;;
61358;SDS011;47228;46.762;23.598;2023-11-19T03:20:43;19.30;;;10.90;;
61358;SDS011;47228;46.762;23.598;2023-11-19T03:23:11;18.60;;;10.60;;
61358;SDS011;47228;46.762;23.598;2023-11-19T03:25:40;16.60;;;10.50;;
61358;SDS011;47228;46.762;23.598;2023-11-19T03:28:08;19.70;;;11.40;;
61358;SDS011;47228;46.762;23.598;2023-11-19T03:30:36;18.30;;;11.10;;
61358;SDS011;47228;46.762;23.598;2023-11-19T03:33:05;16.10;;;10.60;;
61358;SDS011;47228;46.762;23.598;2023-11-19T03:35:33;17.20;;;10.70;;
61358;SDS011;47228;46.762;23.598;2023-11-19T03:38:01;16.90;;;10.80;;
61358;SDS011;47228;46.762;23.598;2023-11-19T03:40:29;18.40;;;10.90;;
61358;SDS011;47228;46.762;23.598;2023-11-19T03:42:57;17.80;;;10.50;;
61358;SDS011;47228;46.762;23.598;2023-11-19T03:45:28;14.80;;;10.00;;
61358;SDS011;47228;46.762;23.598;2023-11-19T03:47:57;19.60;;;11.90;;
61358;SDS011;47228;46.762;23.598;2023-11-19T03:50:25;18.70;;;10.40;;
61358;SDS011;47228;46.762;23.598;2023-11-19T03:52:53;18.50;;;10.80;;
61358;SDS011;47228;46.762;23.598;2023-11-19T03:55:21;18.80;;;10.50;;
61358;SDS011;47228;46.762;23.598;2023-11-19T03:57:49;21.90;;;12.60;;
61358;SDS011;47228;46.762;23.598;2023-11-19T04:00:17;18.10;;;11.10;;
61358;SDS011;47228;46.762;23.598;2023-11-19T04:02:45;19.80;;;10.40;;
61358;SDS011;47228;46.762;23.598;2023-11-19T04:05:14;19.30;;;10.60;;
61358;SDS011;47228;46.762;23.598;2023-11-19T04:07:42;20.40;;;11.20;;
61358;SDS011;47228;46.762;23.598;2023-11-19T04:10:10;20.20;;;12.00;;
61358;SDS011;47228;46.762;23.598;2023-11-19T04:12:39;22.50;;;12.90;;
61358;SDS011;47228;46.762;23.598;2023-11-19T04:15:07;20.60;;;12.00;;
61358;SDS011;47228;46.762;23.598;2023-11-19T04:17:36;19.80;;;12.00;;
61358;SDS011;47228;46.762;23.598;2023-11-19T04:20:04;19.70;;;12.00;;
61358;SDS011;47228;46.762;23.598;2023-11-19T04:22:33;20.30;;;11.90;;
61358;SDS011;47228;46.762;23.598;2023-11-19T04:25:01;21.30;;;12.70;;
61358;SDS011;47228;46.762;23.598;2023-11-19T04:27:30;19.30;;;11.20;;
61358;SDS011;47228;46.762;23.598;2023-11-19T04:29:58;18.90;;;11.70;;
61358;SDS011;47228;46.762;23.598;2023-11-19T04:32:28;18.90;;;11.00;;
61358;SDS011;47228;46.762;23.598;2023-11-19T04:34:56;19.40;;;11.40;;
61358;SDS011;47228;46.762;23.598;2023-11-19T04:37:24;18.50;;;11.20;;
61358;SDS011;47228;46.762;23.598;2023-11-19T04:39:52;19.20;;;10.80;;
61358;SDS011;47228;46.762;23.598;2023-11-19T04:42:23;18.40;;;11.00;;
61358;SDS011;47228;46.762;23.598;2023-11-19T04:44:52;19.30;;;11.50;;
61358;SDS011;47228;46.762;23.598;2023-11-19T04:47:20;23.70;;;11.30;;
61358;SDS011;47228;46.762;23.598;2023-11-19T04:49:48;19.20;;;11.10;;
61358;SDS011;47228;46.762;23.598;2023-11-19T04:52:16;19.20;;;11.70;;
61358;SDS011;47228;46.762;23.598;2023-11-19T04:54:44;20.30;;;11.00;;
61358;SDS011;47228;46.762;23.598;2023-11-19T04:57:13;17.20;;;10.40;;
61358;SDS011;47228;46.762;23.598;2023-11-19T04:59:41;16.60;;;9.80;;
61358;SDS011;47228;46.762;23.598;2023-11-19T05:02:09;17.20;;;9.60;;
61358;SDS011;47228;46.762;23.598;2023-11-19T05:04:42;15.80;;;9.10;;
61358;SDS011;47228;46.762;23.598;2023-11-19T05:07:11;16.30;;;9.80;;
61358;SDS011;47228;46.762;23.598;2023-11-19T05:09:40;16.80;;;10.20;;
61358;SDS011;47228;46.762;23.598;2023-11-19T05:12:08;17.80;;;9.90;;
61358;SDS011;47228;46.762;23.598;2023-11-19T05:14:39;15.60;;;9.50;;
61358;SDS011;47228;46.762;23.598;2023-11-19T05:17:07;15.60;;;9.50;;
61358;SDS011;47228;46.762;23.598;2023-11-19T05:19:36;16.00;;;10.20;;
61358;SDS011;47228;46.762;23.598;2023-11-19T05:22:04;16.30;;;9.60;;
61358;SDS011;47228;46.762;23.598;2023-11-19T05:24:32;16.10;;;10.10;;
61358;SDS011;47228;46.762;23.598;2023-11-19T05:27:00;15.40;;;9.40;;
61358;SDS011;47228;46.762;23.598;2023-11-19T05:29:28;15.40;;;9.20;;
61358;SDS011;47228;46.762;23.598;2023-11-19T05:31:57;14.80;;;9.10;;
61358;SDS011;47228;46.762;23.598;2023-11-19T05:34:25;14.90;;;10.00;;
61358;SDS011;47228;46.762;23.598;2023-11-19T05:36:53;15.30;;;9.40;;
61358;SDS011;47228;46.762;23.598;2023-11-19T05:39:21;14.90;;;9.00;;
61358;SDS011;47228;46.762;23.598;2023-11-19T05:41:49;21.90;;;11.10;;
61358;SDS011;47228;46.762;23.598;2023-11-19T05:44:17;16.60;;;10.10;;
61358;SDS011;47228;46.762;23.598;2023-11-19T05:46:46;15.60;;;9.90;;
61358;SDS011;47228;46.762;23.598;2023-11-19T05:49:14;16.20;;;10.40;;
61358;SDS011;47228;46.762;23.598;2023-11-19T05:51:42;16.10;;;10.50;;
61358;SDS011;47228;46.762;23.598;2023-11-19T05:54:11;16.10;;;9.40;;
61358;SDS011;47228;46.762;23.598;2023-11-19T05:56:39;13.30;;;8.80;;
61358;SDS011;47228;46.762;23.598;2023-11-19T05:59:07;14.90;;;9.00;;
61358;SDS011;47228;46.762;23.598;2023-11-19T06:01:43;16.50;;;9.30;;
61358;SDS011;47228;46.762;23.598;2023-11-19T06:04:11;14.70;;;10.20;;
61358;SDS011;47228;46.762;23.598;2023-11-19T06:06:40;17.40;;;10.00;;
61358;SDS011;47228;46.762;23.598;2023-11-19T06:09:08;15.90;;;9.70;;
61358;SDS011;47228;46.762;23.598;2023-11-19T06:11:41;15.80;;;10.00;;
61358;SDS011;47228;46.762;23.598;2023-11-19T06:14:09;15.80;;;9.60;;
61358;SDS011;47228;46.762;23.598;2023-11-19T06:16:37;15.00;;;9.90;;
61358;SDS011;47228;46.762;23.598;2023-11-19T06:19:07;16.20;;;10.10;;
61358;SDS011;47228;46.762;23.598;2023-11-19T06:21:36;16.30;;;10.90;;
61358;SDS011;47228;46.762;23.598;2023-11-19T06:24:04;16.10;;;10.50;;
61358;SDS011;47228;46.762;23.598;2023-11-19T06:26:32;17.70;;;11.20;;
61358;SDS011;47228;46.762;23.598;2023-11-19T06:29:01;17.30;;;10.50;;
61358;SDS011;47228;46.762;23.598;2023-11-19T06:31:29;17.90;;;10.30;;
61358;SDS011;47228;46.762;23.598;2023-11-19T06:33:57;16.00;;;10.10;;
61358;SDS011;47228;46.762;23.598;2023-11-19T06:36:25;16.20;;;10.00;;
61358;SDS011;47228;46.762;23.598;2023-11-19T06:38:54;15.70;;;10.10;;
61358;SDS011;47228;46.762;23.598;2023-11-19T06:41:23;13.70;;;9.40;;
61358;SDS011;47228;46.762;23.598;2023-11-19T06:43:51;15.20;;;9.30;;
61358;SDS011;47228;46.762;23.598;2023-11-19T06:46:20;15.40;;;9.80;;
61358;SDS011;47228;46.762;23.598;2023-11-19T06:48:48;12.40;;;8.60;;
61358;SDS011;47228;46.762;23.598;2023-11-19T06:51:16;13.30;;;8.70;;
61358;SDS011;47228;46.762;23.598;2023-11-19T06:53:44;14.30;;;9.10;;
61358;SDS011;47228;46.762;23.598;2023-11-19T06:56:23;16.70;;;9.50;;
61358;SDS011;47228;46.762;23.598;2023-11-19T06:58:51;14.10;;;9.40;;
61358;SDS011;47228;46.762;23.598;2023-11-19T07:01:19;13.90;;;9.00;;
61358;SDS011;47228;46.762;23.598;2023-11-19T07:03:48;14.30;;;9.40;;
61358;SDS011;47228;46.762;23.598;2023-11-19T07:06:17;16.50;;;9.40;;
61358;SDS011;47228;46.762;23.598;2023-11-19T07:08:45;16.20;;;10.00;;
61358;SDS011;47228;46.762;23.598;2023-11-19T07:11:13;14.80;;;9.30;;
61358;SDS011;47228;46.762;23.598;2023-11-19T07:13:45;15.50;;;10.00;;
61358;SDS011;47228;46.762;23.598;2023-11-19T07:16:14;16.30;;;10.30;;
61358;SDS011;47228;46.762;23.598;2023-11-19T07:18:43;12.90;;;9.40;;
61358;SDS011;47228;46.762;23.598;2023-11-19T07:21:12;15.40;;;10.80;;
61358;SDS011;47228;46.762;23.598;2023-11-19T07:23:40;15.30;;;9.90;;
61358;SDS011;47228;46.762;23.598;2023-11-19T07:26:09;15.80;;;10.10;;
61358;SDS011;47228;46.762;23.598;2023-11-19T07:28:37;14.30;;;9.60;;
61358;SDS011;47228;46.762;23.598;2023-11-19T07:31:07;13.90;;;8.80;;
61358;SDS011;47228;46.762;23.598;2023-11-19T07:33:36;15.30;;;8.90;;
61358;SDS011;47228;46.762;23.598;2023-11-19T07:36:05;14.20;;;9.30;;
61358;SDS011;47228;46.762;23.598;2023-11-19T07:38:33;14.10;;;9.30;;
61358;SDS011;47228;46.762;23.598;2023-11-19T07:41:01;13.80;;;9.50;;
61358;SDS011;47228;46.762;23.598;2023-11-19T07:43:29;16.80;;;9.50;;
61358;SDS011;47228;46.762;23.598;2023-11-19T07:45:57;14.20;;;9.30;;
61358;SDS011;47228;46.762;23.598;2023-11-19T07:48:29;13.70;;;9.40;;
61358;SDS011;47228;46.762;23.598;2023-11-19T07:50:57;14.10;;;9.10;;
61358;SDS011;47228;46.762;23.598;2023-11-19T07:53:25;12.10;;;8.20;;
61358;SDS011;47228;46.762;23.598;2023-11-19T07:55:53;12.10;;;7.90;;
61358;SDS011;47228;46.762;23.598;2023-11-19T07:58:21;11.90;;;7.60;;
61358;SDS011;47228;46.762;23.598;2023-11-19T08:00:49;13.20;;;7.70;;
61358;SDS011;47228;46.762;23.598;2023-11-19T08:03:17;11.80;;;8.20;;
61358;SDS011;47228;46.762;23.598;2023-11-19T08:05:55;11.90;;;8.00;;
61358;SDS011;47228;46.762;23.598;2023-11-19T08:08:27;13.80;;;7.90;;
61358;SDS011;47228;46.762;23.598;2023-11-19T08:10:57;11.00;;;7.00;;
61358;SDS011;47228;46.762;23.598;2023-11-19T08:13:25;12.20;;;8.10;;
61358;SDS011;47228;46.762;23.598;2023-11-19T08:15:53;11.70;;;7.30;;
61358;SDS011;47228;46.762;23.598;2023-11-19T08:18:21;10.60;;;7.00;;
61358;SDS011;47228;46.762;23.598;2023-11-19T08:20:49;11.00;;;7.90;;
61358;SDS011;47228;46.762;23.598;2023-11-19T08:23:20;11.70;;;7.80;;
61358;SDS011;47228;46.762;23.598;2023-11-19T08:25:48;11.10;;;7.50;;
61358;SDS011;47228;46.762;23.598;2023-11-19T08:28:17;12.30;;;7.80;;
61358;SDS011;47228;46.762;23.598;2023-11-19T08:30:45;12.60;;;7.40;;
61358;SDS011;47228;46.762;23.598;2023-11-19T08:33:13;10.10;;;7.30;;
61358;SDS011;47228;46.762;23.598;2023-11-19T08:35:42;10.40;;;6.30;;
61358;SDS011;47228;46.762;23.598;2023-11-19T08:38:11;11.20;;;6.80;;
61358;SDS011;47228;46.762;23.598;2023-11-19T08:40:39;9.60;;;5.90;;
61358;SDS011;47228;46.762;23.598;2023-11-19T08:43:07;9.40;;;6.20;;
61358;SDS011;47228;46.762;23.598;2023-11-19T08:45:35;10.80;;;6.90;;
61358;SDS011;47228;46.762;23.598;2023-11-19T08:48:03;12.30;;;7.40;;
61358;SDS011;47228;46.762;23.598;2023-11-19T08:50:32;11.40;;;7.60;;
61358;SDS011;47228;46.762;23.598;2023-11-19T08:53:00;10.90;;;7.20;;
61358;SDS011;47228;46.762;23.598;2023-11-19T08:55:28;11.80;;;7.80;;
61358;SDS011;47228;46.762;23.598;2023-11-19T08:57:56;10.80;;;7.30;;
61358;SDS011;47228;46.762;23.598;2023-11-19T09:00:25;13.50;;;7.80;;
61358;SDS011;47228;46.762;23.598;2023-11-19T09:02:55;10.40;;;7.10;;
61358;SDS011;47228;46.762;23.598;2023-11-19T09:05:24;12.30;;;7.40;;
61358;SDS011;47228;46.762;23.598;2023-11-19T09:07:52;10.70;;;7.10;;
61358;SDS011;47228;46.762;23.598;2023-11-19T09:10:20;12.00;;;7.70;;
61358;SDS011;47228;46.762;23.598;2023-11-19T09:12:48;13.80;;;7.40;;
61358;SDS011;47228;46.762;23.598;2023-11-19T09:15:16;11.80;;;8.40;;
61358;SDS011;47228;46.762;23.598;2023-11-19T09:17:44;12.60;;;7.80;;
61358;SDS011;47228;46.762;23.598;2023-11-19T09:20:16;11.60;;;7.40;;
61358;SDS011;47228;46.762;23.598;2023-11-19T09:22:44;12.10;;;8.10;;
61358;SDS011;47228;46.762;23.598;2023-11-19T09:25:12;13.50;;;7.80;;
61358;SDS011;47228;46.762;23.598;2023-11-19T09:27:44;12.10;;;7.60;;
61358;SDS011;47228;46.762;23.598;2023-11-19T09:30:19;13.00;;;8.70;;
61358;SDS011;47228;46.762;23.598;2023-11-19T09:32:48;14.10;;;8.50;;
61358;SDS011;47228;46.762;23.598;2023-11-19T09:35:19;13.20;;;8.00;;
61358;SDS011;47228;46.762;23.598;2023-11-19T09:37:47;12.70;;;8.20;;
61358;SDS011;47228;46.762;23.598;2023-11-19T09:40:15;14.70;;;9.00;;
61358;SDS011;47228;46.762;23.598;2023-11-19T09:42:45;13.70;;;8.20;;
61358;SDS011;47228;46.762;23.598;2023-11-19T09:45:14;12.80;;;8.40;;
61358;SDS011;47228;46.762;23.598;2023-11-19T09:47:44;13.30;;;8.40;;
61358;SDS011;47228;46.762;23.598;2023-11-19T09:50:14;15.10;;;8.80;;
61358;SDS011;47228;46.762;23.598;2023-11-19T09:52:45;14.20;;;8.30;;
61358;SDS011;47228;46.762;23.598;2023-11-19T09:55:14;13.80;;;8.40;;
61358;SDS011;47228;46.762;23.598;2023-11-19T09:57:42;12.50;;;7.80;;
61358;SDS011;47228;46.762;23.598;2023-11-19T10:00:13;11.70;;;7.30;;
61358;SDS011;47228;46.762;23.598;2023-11-19T10:02:43;11.70;;;7.50;;
61358;SDS011;47228;46.762;23.598;2023-11-19T10:05:14;14.30;;;8.00;;
61358;SDS011;47228;46.762;23.598;2023-11-19T10:07:43;11.50;;;7.40;;
61358;SDS011;47228;46.762;23.598;2023-11-19T10:10:12;10.90;;;6.50;;
61358;SDS011;47228;46.762;23.598;2023-11-19T10:12:46;11.00;;;6.80;;
61358;SDS011;47228;46.762;23.598;2023-11-19T10:15:19;12.20;;;7.00;;
61358;SDS011;47228;46.762;23.598;2023-11-19T10:17:50;14.00;;;8.50;;
61358;SDS011;47228;46.762;23.598;2023-11-19T10:20:19;13.80;;;8.40;;
61358;SDS011;47228;46.762;23.598;2023-11-19T10:22:47;12.90;;;8.30;;
61358;SDS011;47228;46.762;23.598;2023-11-19T10:25:21;14.60;;;8.30;;
61358;SDS011;47228;46.762;23.598;2023-11-19T10:27:54;13.80;;;8.90;;
61358;SDS011;47228;46.762;23.598;2023-11-19T10:30:24;13.40;;;8.50;;
61358;SDS011;47228;46.762;23.598;2023-11-19T10:33:10;16.00;;;9.90;;
61358;SDS011;47228;46.762;23.598;2023-11-19T10:35:51;19.50;;;12.10;;
61358;SDS011;47228;46.762;23.598;2023-11-19T10:38:25;26.50;;;15.50;;
61358;SDS011;47228;46.762;23.598;2023-11-19T10:40:53;24.10;;;15.30;;
61358;SDS011;47228;46.762;23.598;2023-11-19T10:43:23;22.90;;;15.90;;
61358;SDS011;47228;46.762;23.598;2023-11-19T10:45:51;20.80;;;13.90;;
61358;SDS011;47228;46.762;23.598;2023-11-19T10:48:20;20.50;;;14.00;;
61358;SDS011;47228;46.762;23.598;2023-11-19T10:50:49;19.60;;;14.00;;
61358;SDS011;47228;46.762;23.598;2023-11-19T10:53:22;23.40;;;15.30;;
61358;SDS011;47228;46.762;23.598;2023-11-19T10:55:54;23.90;;;13.80;;
61358;SDS011;47228;46.762;23.598;2023-11-19T10:58:26;23.60;;;14.40;;
61358;SDS011;47228;46.762;23.598;2023-11-19T11:01:01;22.30;;;14.50;;
61358;SDS011;47228;46.762;23.598;2023-11-19T11:03:36;21.70;;;13.90;;
61358;SDS011;47228;46.762;23.598;2023-11-19T11:06:08;23.70;;;15.40;;
61358;SDS011;47228;46.762;23.598;2023-11-19T11:08:38;21.80;;;15.30;;
61358;SDS011;47228;46.762;23.598;2023-11-19T11:11:07;32.30;;;15.50;;
61358;SDS011;47228;46.762;23.598;2023-11-19T11:13:39;23.50;;;14.40;;
61358;SDS011;47228;46.762;23.598;2023-11-19T11:16:10;22.80;;;14.10;;
61358;SDS011;47228;46.762;23.598;2023-11-19T11:18:39;22.60;;;14.10;;
61358;SDS011;47228;46.762;23.598;2023-11-19T11:21:11;24.30;;;14.70;;
61358;SDS011;47228;46.762;23.598;2023-11-19T11:24:01;24.10;;;14.30;;
61358;SDS011;47228;46.762;23.598;2023-11-19T11:32:30;23.60;;;14.70;;
61358;SDS011;47228;46.762;23.598;2023-11-19T11:35:16;19.80;;;13.10;;
61358;SDS011;47228;46.762;23.598;2023-11-19T11:38:02;18.60;;;12.90;;
61358;SDS011;47228;46.762;23.598;2023-11-19T11:43:03;22.50;;;13.60;;
61358;SDS011;47228;46.762;23.598;2023-11-19T11:45:37;21.50;;;14.10;;
61358;SDS011;47228;46.762;23.598;2023-11-19T11:48:10;23.60;;;14.50;;
61358;SDS011;47228;46.762;23.598;2023-11-19T11:50:47;21.40;;;13.90;;
61358;SDS011;47228;46.762;23.598;2023-11-19T11:53:17;20.80;;;13.60;;
61358;SDS011;47228;46.762;23.598;2023-11-19T11:58:19;19.30;;;12.90;;
61358;SDS011;47228;46.762;23.598;2023-11-19T12:00:51;22.30;;;13.60;;
61358;SDS011;47228;46.762;23.598;2023-11-19T12:03:23;23.30;;;13.80;;
61358;SDS011;47228;46.762;23.598;2023-11-19T12:05:51;20.00;;;13.10;;
61358;SDS011;47228;46.762;23.598;2023-11-19T12:08:26;20.80;;;12.90;;
61358;SDS011;47228;46.762;23.598;2023-11-19T12:10:56;23.40;;;14.50;;
61358;SDS011;47228;46.762;23.598;2023-11-19T12:13:46;20.80;;;13.30;;
61358;SDS011;47228;46.762;23.598;2023-11-19T12:16:27;21.50;;;13.90;;
61358;SDS011;47228;46.762;23.598;2023-11-19T12:18:57;21.50;;;13.70;;
61358;SDS011;47228;46.762;23.598;2023-11-19T12:21:32;21.40;;;13.60;;
61358;SDS011;47228;46.762;23.598;2023-11-19T12:24:00;20.40;;;13.80;;
61358;SDS011;47228;46.762;23.598;2023-11-19T12:26:36;18.90;;;11.20;;
61358;SDS011;47228;46.762;23.598;2023-11-19T12:29:05;17.90;;;11.30;;
61358;SDS011;47228;46.762;23.598;2023-11-19T12:31:36;16.20;;;9.70;;
61358;SDS011;47228;46.762;23.598;2023-11-19T12:34:05;12.60;;;7.40;;
61358;SDS011;47228;46.762;23.598;2023-11-19T12:36:34;12.80;;;7.80;;
61358;SDS011;47228;46.762;23.598;2023-11-19T12:39:03;15.10;;;8.50;;
61358;SDS011;47228;46.762;23.598;2023-11-19T12:41:31;14.40;;;8.90;;
61358;SDS011;47228;46.762;23.598;2023-11-19T12:44:11;11.80;;;8.00;;
61358;SDS011;47228;46.762;23.598;2023-11-19T12:46:40;15.60;;;9.00;;
61358;SDS011;47228;46.762;23.598;2023-11-19T12:49:08;15.20;;;9.10;;
61358;SDS011;47228;46.762;23.598;2023-11-19T12:51:39;13.80;;;8.50;;
61358;SDS011;47228;46.762;23.598;2023-11-19T12:54:07;15.10;;;8.90;;
61358;SDS011;47228;46.762;23.598;2023-11-19T12:56:35;16.60;;;9.40;;
61358;SDS011;47228;46.762;23.598;2023-11-19T12:59:12;15.80;;;9.80;;
61358;SDS011;47228;46.762;23.598;2023-11-19T13:01:40;15.60;;;10.00;;
61358;SDS011;47228;46.762;23.598;2023-11-19T13:04:19;15.60;;;10.60;;
61358;SDS011;47228;46.762;23.598;2023-11-19T13:06:47;17.40;;;10.30;;
61358;SDS011;47228;46.762;23.598;2023-11-19T13:09:32;15.60;;;10.10;;
61358;SDS011;47228;46.762;23.598;2023-11-19T13:12:11;17.40;;;10.40;;
61358;SDS011;47228;46.762;23.598;2023-11-19T13:14:41;17.20;;;10.80;;
61358;SDS011;47228;46.762;23.598;2023-11-19T13:17:15;16.80;;;10.70;;
61358;SDS011;47228;46.762;23.598;2023-11-19T13:19:43;15.70;;;9.70;;
61358;SDS011;47228;46.762;23.598;2023-11-19T13:22:11;14.90;;;10.00;;
61358;SDS011;47228;46.762;23.598;2023-11-19T13:24:39;16.60;;;10.10;;
61358;SDS011;47228;46.762;23.598;2023-11-19T13:27:08;17.70;;;10.30;;
61358;SDS011;47228;46.762;23.598;2023-11-19T13:29:38;16.80;;;10.40;;
61358;SDS011;47228;46.762;23.598;2023-11-19T13:32:06;15.10;;;9.60;;
61358;SDS011;47228;46.762;23.598;2023-11-19T13:34:35;16.10;;;9.40;;
61358;SDS011;47228;46.762;23.598;2023-11-19T13:37:03;19.00;;;10.50;;
61358;SDS011;47228;46.762;23.598;2023-11-19T13:39:32;17.60;;;9.90;;
61358;SDS011;47228;46.762;23.598;2023-11-19T13:42:00;19.90;;;11.60;;
61358;SDS011;47228;46.762;23.598;2023-11-19T13:44:31;18.30;;;11.10;;
61358;SDS011;47228;46.762;23.598;2023-11-19T13:46:59;17.70;;;11.20;;
61358;SDS011;47228;46.762;23.598;2023-11-19T13:49:27;18.40;;;10.60;;
61358;SDS011;47228;46.762;23.598;2023-11-19T13:51:56;16.60;;;10.90;;
61358;SDS011;47228;46.762;23.598;2023-11-19T13:54:24;19.60;;;10.40;;
61358;SDS011;47228;46.762;23.598;2023-11-19T13:56:54;16.20;;;9.70;;
61358;SDS011;47228;46.762;23.598;2023-11-19T14:01:54;15.80;;;9.10;;
61358;SDS011;47228;46.762;23.598;2023-11-19T14:04:22;17.40;;;10.90;;
61358;SDS011;47228;46.762;23.598;2023-11-19T14:06:51;18.40;;;11.30;;
61358;SDS011;47228;46.762;23.598;2023-11-19T14:09:19;15.50;;;10.50;;
61358;SDS011;47228;46.762;23.598;2023-11-19T14:11:47;13.80;;;8.80;;
61358;SDS011;47228;46.762;23.598;2023-11-19T14:14:19;17.30;;;9.60;;
61358;SDS011;47228;46.762;23.598;2023-11-19T14:16:47;16.10;;;9.50;;
61358;SDS011;47228;46.762;23.598;2023-11-19T14:19:15;15.20;;;9.10;;
61358;SDS011;47228;46.762;23.598;2023-11-19T14:21:44;15.70;;;9.10;;
61358;SDS011;47228;46.762;23.598;2023-11-19T14:24:13;16.00;;;10.00;;
61358;SDS011;47228;46.762;23.598;2023-11-19T14:26:41;14.90;;;8.20;;
61358;SDS011;47228;46.762;23.598;2023-11-19T14:29:09;21.70;;;8.90;;
61358;SDS011;47228;46.762;23.598;2023-11-19T14:31:37;17.70;;;8.90;;
61358;SDS011;47228;46.762;23.598;2023-11-19T14:34:05;15.30;;;8.60;;
61358;SDS011;47228;46.762;23.598;2023-11-19T14:36:33;15.10;;;9.00;;
61358;SDS011;47228;46.762;23.598;2023-11-19T14:39:02;15.30;;;9.20;;
61358;SDS011;47228;46.762;23.598;2023-11-19T14:41:31;16.20;;;9.40;;
61358;SDS011;47228;46.762;23.598;2023-11-19T14:43:59;16.00;;;9.90;;